»·PEaware :: N235B KCMA-KSNA

N235B :: KCMA-KSNA

FLIGHT INFORMATION

Flight Status: Arrived
Operator: Privately registered:
United States
More flights under this callsign
Pilot: Jason D. (29273)
Aircraft: BEECH AIRCRAFT BARON
(BE58)
More flights by this aircraft type
Origin: KCMA Camarillo
United States
Destination: KSNA John Wayne-Orange Co
United States
More flights between these airports :: More routes between these airports
Route: +
File this flight plan on PilotEdge
Remarks: COASTAL ROUTE
Altitude:
(Current/Filed)
5,500ft
Speed:
(Current/Filed)
160kts
Departed: 15-Aug-20 01:52 PM
Arrived: 15-Aug-20 02:31 PM
Distance/Time
Traveled:
69nm/0:39
Distance/Time
To Go:
Arrived

Flight Plot

Page will automatically refresh every two minutes.


Map Options




Map Legend


Flown Route
Filed Route
Departure Airport
Arrival Airport
Navaid (VOR, NDB)
Fix

Horizontal Profiles

Position Reports

Time Latitude Longitude Heading Altitude Ground
Speed
15-Aug-20 13:34 34.210350 -119.076481 90 79ft 0kts
15-Aug-20 13:35 34.210350 -119.076481 90 79ft 0kts
15-Aug-20 13:36 34.210350 -119.076481 90 79ft 0kts
15-Aug-20 13:37 34.210350 -119.076481 90 79ft 0kts
15-Aug-20 13:38 34.210350 -119.076481 90 79ft 0kts
15-Aug-20 13:39 34.210350 -119.076481 90 79ft 0kts
15-Aug-20 13:40 34.210350 -119.076481 90 79ft 0kts
15-Aug-20 13:41 34.210350 -119.076481 90 79ft 0kts
15-Aug-20 13:42 34.210350 -119.076481 90 79ft 0kts
15-Aug-20 13:43 34.210350 -119.076481 90 79ft 0kts
15-Aug-20 13:44 34.210350 -119.076481 90 79ft 0kts
15-Aug-20 13:45 34.210603 -119.076147 23 80ft 11kts
15-Aug-20 13:46 34.210886 -119.080867 270 76ft 19kts
15-Aug-20 13:47 34.211619 -119.084649 359 74ft 17kts
15-Aug-20 13:48 34.212706 -119.084622 0 76ft 0kts
15-Aug-20 13:49 34.212706 -119.084622 0 76ft 0kts
15-Aug-20 13:50 34.213763 -119.085478 270 76ft 0kts
15-Aug-20 13:51 34.209936 -119.105863 198 917ft 82kts
15-Aug-20 13:52 34.198726 -119.086533 93 2031ft 92kts
15-Aug-20 13:53 34.198823 -119.057929 94 3025ft 91kts
15-Aug-20 13:54 34.199978 -119.027656 93 4013ft 90kts
15-Aug-20 13:55 34.198888 -118.994471 98 5000ft 117kts
15-Aug-20 13:56 34.196199 -118.948982 98 5490ft 171kts
15-Aug-20 13:57 34.192214 -118.899924 102 5515ft 181kts
15-Aug-20 13:58 34.179378 -118.840406 107 5473ft 181kts
15-Aug-20 13:59 34.165903 -118.781581 107 5493ft 181kts
15-Aug-20 14:00 34.152832 -118.722606 106 5495ft 181kts
15-Aug-20 14:01 34.140332 -118.663697 104 5494ft 181kts
15-Aug-20 14:02 34.131981 -118.603637 99 5492ft 181kts
15-Aug-20 14:03 34.124051 -118.543829 101 5499ft 179kts
15-Aug-20 14:04 34.097964 -118.499579 157 5533ft 177kts
15-Aug-20 14:05 34.052168 -118.477949 159 5515ft 178kts
15-Aug-20 14:06 34.005690 -118.457989 163 5507ft 178kts
15-Aug-20 14:07 33.957733 -118.442744 165 5497ft 178kts
15-Aug-20 14:08 33.916399 -118.413256 135 5550ft 177kts
15-Aug-20 14:09 33.881820 -118.371153 143 5517ft 178kts
15-Aug-20 14:10 33.844064 -118.331933 141 5502ft 180kts
15-Aug-20 14:11 33.807690 -118.290625 137 5499ft 181kts
15-Aug-20 14:12 33.771828 -118.248306 137 5500ft 180kts
15-Aug-20 14:13 33.735952 -118.206165 137 5513ft 179kts
15-Aug-20 14:14 33.700281 -118.164530 137 5517ft 179kts
15-Aug-20 14:15 33.664280 -118.122815 137 5520ft 179kts
15-Aug-20 14:16 33.626862 -118.083717 140 5524ft 179kts
15-Aug-20 14:17 33.589001 -118.044757 140 5525ft 178kts
15-Aug-20 14:18 33.581306 -117.998690 33 5557ft 184kts
15-Aug-20 14:19 33.623552 -117.965703 358 5397ft 195kts
15-Aug-20 14:20 33.674582 -117.974103 352 5565ft 159kts
15-Aug-20 14:21 33.716847 -117.981552 352 4779ft 151kts
15-Aug-20 14:22 33.757008 -117.979251 47 3945ft 151kts
15-Aug-20 14:23 33.776410 -117.937101 75 3233ft 145kts
15-Aug-20 14:24 33.781196 -117.890621 82 2522ft 147kts
15-Aug-20 14:25 33.779486 -117.844705 117 1777ft 143kts
15-Aug-20 14:26 33.756214 -117.832698 193 1442ft 102kts
15-Aug-20 14:27 33.729095 -117.839761 195 1078ft 99kts
15-Aug-20 14:28 33.703567 -117.851107 203 749ft 97kts
15-Aug-20 14:29 33.680660 -117.865646 206 96ft 80kts
15-Aug-20 14:31 33.672037 -117.872321 251 60ft 5kts
15-Aug-20 14:32 33.671983 -117.873664 292 60ft 2kts
15-Aug-20 14:33 33.671984 -117.873667 292 60ft 0kts
15-Aug-20 14:34 33.671984 -117.873667 292 60ft 0kts
15-Aug-20 14:35 33.671984 -117.873667 292 60ft 0kts
15-Aug-20 14:36 33.671984 -117.873667 292 60ft 0kts
15-Aug-20 14:37 33.671984 -117.873667 292 60ft 0kts
15-Aug-20 14:38 33.671984 -117.873667 292 60ft 0kts
15-Aug-20 14:39 33.671984 -117.873667 292 60ft 0kts
15-Aug-20 14:40 33.671984 -117.873667 292 60ft 0kts
15-Aug-20 14:41 33.671984 -117.873667 292 60ft 0kts
15-Aug-20 14:42 33.671984 -117.873667 292 60ft 0kts
15-Aug-20 14:43 33.671984 -117.873667 292 60ft 0kts
15-Aug-20 14:44 33.671984 -117.873667 292 60ft 0kts
15-Aug-20 14:44 33.671984 -117.873667 292 60ft 0kts

Navigation Log

Ident Type
Flight plan parsing failed, navigation log unavailable